sensor_id;sensor_type;location;lat;lon;timestamp;P1;durP1;ratioP1;P2;durP2;ratioP2
16416;SDS011;8317;52.186;5.688;2023-04-24T00:01:20;1.00;;;1.00;;
16416;SDS011;8317;52.186;5.688;2023-04-24T00:03:47;1.00;;;1.00;;
16416;SDS011;8317;52.186;5.688;2023-04-24T00:06:15;1.10;;;1.10;;
16416;SDS011;8317;52.186;5.688;2023-04-24T00:08:44;1.48;;;1.38;;
16416;SDS011;8317;52.186;5.688;2023-04-24T00:11:11;1.67;;;1.58;;
16416;SDS011;8317;52.186;5.688;2023-04-24T00:13:38;5.20;;;2.45;;
16416;SDS011;8317;52.186;5.688;2023-04-24T00:16:05;1.58;;;1.48;;
16416;SDS011;8317;52.186;5.688;2023-04-24T00:18:32;1.92;;;1.83;;
16416;SDS011;8317;52.186;5.688;2023-04-24T00:20:59;3.35;;;2.10;;
16416;SDS011;8317;52.186;5.688;2023-04-24T00:23:26;2.75;;;2.45;;
16416;SDS011;8317;52.186;5.688;2023-04-24T00:25:54;3.58;;;2.30;;
16416;SDS011;8317;52.186;5.688;2023-04-24T00:28:21;2.97;;;2.72;;
16416;SDS011;8317;52.186;5.688;2023-04-24T00:30:48;3.88;;;3.38;;
16416;SDS011;8317;52.186;5.688;2023-04-24T00:33:15;4.57;;;3.88;;
16416;SDS011;8317;52.186;5.688;2023-04-24T00:35:42;4.72;;;2.85;;
16416;SDS011;8317;52.186;5.688;2023-04-24T00:38:08;3.60;;;2.83;;
16416;SDS011;8317;52.186;5.688;2023-04-24T00:40:35;4.22;;;2.75;;
16416;SDS011;8317;52.186;5.688;2023-04-24T00:43:04;3.92;;;2.92;;
16416;SDS011;8317;52.186;5.688;2023-04-24T00:45:31;3.20;;;2.90;;
16416;SDS011;8317;52.186;5.688;2023-04-24T00:47:58;4.43;;;3.95;;
16416;SDS011;8317;52.186;5.688;2023-04-24T00:50:26;4.63;;;3.45;;
16416;SDS011;8317;52.186;5.688;2023-04-24T00:52:54;3.70;;;3.05;;
16416;SDS011;8317;52.186;5.688;2023-04-24T00:55:21;5.03;;;3.70;;
16416;SDS011;8317;52.186;5.688;2023-04-24T00:57:48;3.92;;;3.40;;
16416;SDS011;8317;52.186;5.688;2023-04-24T01:00:17;3.15;;;2.85;;
16416;SDS011;8317;52.186;5.688;2023-04-24T01:02:44;4.18;;;3.60;;
16416;SDS011;8317;52.186;5.688;2023-04-24T01:05:12;4.13;;;3.58;;
16416;SDS011;8317;52.186;5.688;2023-04-24T01:07:41;3.63;;;3.33;;
16416;SDS011;8317;52.186;5.688;2023-04-24T01:10:11;5.00;;;3.47;;
16416;SDS011;8317;52.186;5.688;2023-04-24T01:12:38;5.07;;;3.45;;
16416;SDS011;8317;52.186;5.688;2023-04-24T01:15:06;6.25;;;2.95;;
16416;SDS011;8317;52.186;5.688;2023-04-24T01:17:35;4.55;;;3.63;;
16416;SDS011;8317;52.186;5.688;2023-04-24T01:20:03;3.20;;;2.90;;
16416;SDS011;8317;52.186;5.688;2023-04-24T01:22:33;3.72;;;3.13;;
16416;SDS011;8317;52.186;5.688;2023-04-24T01:25:00;3.70;;;3.35;;
16416;SDS011;8317;52.186;5.688;2023-04-24T01:27:28;4.07;;;3.15;;
16416;SDS011;8317;52.186;5.688;2023-04-24T01:29:54;4.45;;;3.03;;
16416;SDS011;8317;52.186;5.688;2023-04-24T01:32:21;5.30;;;3.80;;
16416;SDS011;8317;52.186;5.688;2023-04-24T01:34:49;3.95;;;3.40;;
16416;SDS011;8317;52.186;5.688;2023-04-24T01:37:16;7.00;;;4.03;;
16416;SDS011;8317;52.186;5.688;2023-04-24T01:39:45;4.60;;;3.95;;
16416;SDS011;8317;52.186;5.688;2023-04-24T01:42:11;4.85;;;3.65;;
16416;SDS011;8317;52.186;5.688;2023-04-24T01:44:39;4.05;;;3.50;;
16416;SDS011;8317;52.186;5.688;2023-04-24T01:47:07;8.50;;;3.65;;
16416;SDS011;8317;52.186;5.688;2023-04-24T01:49:34;6.57;;;4.20;;
16416;SDS011;8317;52.186;5.688;2023-04-24T01:52:01;5.68;;;3.97;;
16416;SDS011;8317;52.186;5.688;2023-04-24T01:54:28;4.28;;;3.42;;
16416;SDS011;8317;52.186;5.688;2023-04-24T01:56:56;6.30;;;3.78;;
16416;SDS011;8317;52.186;5.688;2023-04-24T01:59:23;6.82;;;4.95;;
16416;SDS011;8317;52.186;5.688;2023-04-24T02:01:53;5.22;;;4.45;;
16416;SDS011;8317;52.186;5.688;2023-04-24T02:04:19;6.30;;;3.70;;
16416;SDS011;8317;52.186;5.688;2023-04-24T02:06:46;6.45;;;4.30;;
16416;SDS011;8317;52.186;5.688;2023-04-24T02:09:13;6.63;;;3.88;;
16416;SDS011;8317;52.186;5.688;2023-04-24T02:11:40;6.13;;;4.63;;
16416;SDS011;8317;52.186;5.688;2023-04-24T02:14:08;6.47;;;4.95;;
16416;SDS011;8317;52.186;5.688;2023-04-24T02:16:35;8.70;;;4.78;;
16416;SDS011;8317;52.186;5.688;2023-04-24T02:19:02;5.88;;;4.25;;
16416;SDS011;8317;52.186;5.688;2023-04-24T02:21:29;7.47;;;4.28;;
16416;SDS011;8317;52.186;5.688;2023-04-24T02:23:56;7.53;;;4.35;;
16416;SDS011;8317;52.186;5.688;2023-04-24T02:26:24;8.27;;;4.57;;
16416;SDS011;8317;52.186;5.688;2023-04-24T02:28:51;6.35;;;4.25;;
16416;SDS011;8317;52.186;5.688;2023-04-24T02:31:19;6.35;;;4.57;;
16416;SDS011;8317;52.186;5.688;2023-04-24T02:33:46;6.05;;;4.28;;
16416;SDS011;8317;52.186;5.688;2023-04-24T02:36:13;7.32;;;3.47;;
16416;SDS011;8317;52.186;5.688;2023-04-24T02:38:40;5.57;;;4.13;;
16416;SDS011;8317;52.186;5.688;2023-04-24T02:41:07;5.95;;;3.50;;
16416;SDS011;8317;52.186;5.688;2023-04-24T02:43:33;4.50;;;2.90;;
16416;SDS011;8317;52.186;5.688;2023-04-24T02:46:00;4.50;;;3.10;;
16416;SDS011;8317;52.186;5.688;2023-04-24T02:48:29;3.78;;;3.10;;
16416;SDS011;8317;52.186;5.688;2023-04-24T02:50:56;3.50;;;2.90;;
16416;SDS011;8317;52.186;5.688;2023-04-24T02:53:23;3.83;;;3.17;;
16416;SDS011;8317;52.186;5.688;2023-04-24T02:55:50;3.42;;;3.05;;
16416;SDS011;8317;52.186;5.688;2023-04-24T02:58:17;4.60;;;3.15;;
16416;SDS011;8317;52.186;5.688;2023-04-24T03:00:45;5.18;;;3.50;;
16416;SDS011;8317;52.186;5.688;2023-04-24T03:03:12;4.72;;;3.60;;
16416;SDS011;8317;52.186;5.688;2023-04-24T03:05:42;5.35;;;4.20;;
16416;SDS011;8317;52.186;5.688;2023-04-24T03:08:09;6.70;;;4.15;;
16416;SDS011;8317;52.186;5.688;2023-04-24T03:10:36;4.88;;;2.92;;
16416;SDS011;8317;52.186;5.688;2023-04-24T03:13:03;4.22;;;2.85;;
16416;SDS011;8317;52.186;5.688;2023-04-24T03:15:30;7.28;;;3.85;;
16416;SDS011;8317;52.186;5.688;2023-04-24T03:17:57;5.97;;;3.65;;
16416;SDS011;8317;52.186;5.688;2023-04-24T03:20:25;4.68;;;3.28;;
16416;SDS011;8317;52.186;5.688;2023-04-24T03:22:54;5.35;;;3.78;;
16416;SDS011;8317;52.186;5.688;2023-04-24T03:25:21;4.75;;;3.63;;
16416;SDS011;8317;52.186;5.688;2023-04-24T03:27:48;4.70;;;3.42;;
16416;SDS011;8317;52.186;5.688;2023-04-24T03:30:15;6.43;;;4.03;;
16416;SDS011;8317;52.186;5.688;2023-04-24T03:32:42;5.38;;;3.47;;
16416;SDS011;8317;52.186;5.688;2023-04-24T03:35:09;5.38;;;3.45;;
16416;SDS011;8317;52.186;5.688;2023-04-24T03:37:36;7.35;;;3.97;;
16416;SDS011;8317;52.186;5.688;2023-04-24T03:40:05;5.38;;;4.28;;
16416;SDS011;8317;52.186;5.688;2023-04-24T03:42:33;5.20;;;3.60;;
16416;SDS011;8317;52.186;5.688;2023-04-24T03:45:00;3.58;;;3.03;;
16416;SDS011;8317;52.186;5.688;2023-04-24T03:47:27;5.10;;;3.10;;
16416;SDS011;8317;52.186;5.688;2023-04-24T03:49:53;5.07;;;3.85;;
16416;SDS011;8317;52.186;5.688;2023-04-24T03:52:20;5.75;;;3.78;;
16416;SDS011;8317;52.186;5.688;2023-04-24T03:54:47;6.10;;;4.05;;
16416;SDS011;8317;52.186;5.688;2023-04-24T03:57:16;5.25;;;3.30;;
16416;SDS011;8317;52.186;5.688;2023-04-24T03:59:42;4.85;;;3.47;;
16416;SDS011;8317;52.186;5.688;2023-04-24T04:02:09;8.13;;;3.53;;
16416;SDS011;8317;52.186;5.688;2023-04-24T04:04:36;5.45;;;3.65;;
16416;SDS011;8317;52.186;5.688;2023-04-24T04:07:03;7.18;;;3.85;;
16416;SDS011;8317;52.186;5.688;2023-04-24T04:09:30;5.10;;;3.60;;
16416;SDS011;8317;52.186;5.688;2023-04-24T04:11:57;6.30;;;3.75;;
16416;SDS011;8317;52.186;5.688;2023-04-24T04:14:26;5.60;;;3.85;;
16416;SDS011;8317;52.186;5.688;2023-04-24T04:16:53;4.90;;;3.67;;
16416;SDS011;8317;52.186;5.688;2023-04-24T04:19:20;7.70;;;5.03;;
16416;SDS011;8317;52.186;5.688;2023-04-24T04:21:47;6.32;;;3.40;;
16416;SDS011;8317;52.186;5.688;2023-04-24T04:24:18;7.30;;;4.25;;
16416;SDS011;8317;52.186;5.688;2023-04-24T04:26:45;5.32;;;4.13;;
16416;SDS011;8317;52.186;5.688;2023-04-24T04:29:12;6.78;;;3.88;;
16416;SDS011;8317;52.186;5.688;2023-04-24T04:31:41;6.15;;;4.05;;
16416;SDS011;8317;52.186;5.688;2023-04-24T04:34:08;10.73;;;4.28;;
16416;SDS011;8317;52.186;5.688;2023-04-24T04:36:36;4.45;;;3.65;;
16416;SDS011;8317;52.186;5.688;2023-04-24T04:39:05;5.82;;;3.97;;
16416;SDS011;8317;52.186;5.688;2023-04-24T04:41:32;5.20;;;3.63;;
16416;SDS011;8317;52.186;5.688;2023-04-24T04:44:00;5.70;;;4.22;;
16416;SDS011;8317;52.186;5.688;2023-04-24T04:46:29;3.85;;;3.05;;
16416;SDS011;8317;52.186;5.688;2023-04-24T04:48:59;4.15;;;3.10;;
16416;SDS011;8317;52.186;5.688;2023-04-24T04:51:26;3.33;;;2.80;;
16416;SDS011;8317;52.186;5.688;2023-04-24T04:53:53;3.03;;;2.30;;
16416;SDS011;8317;52.186;5.688;2023-04-24T04:56:20;3.88;;;2.63;;
16416;SDS011;8317;52.186;5.688;2023-04-24T04:58:47;3.35;;;2.80;;
16416;SDS011;8317;52.186;5.688;2023-04-24T05:01:14;3.25;;;2.30;;
16416;SDS011;8317;52.186;5.688;2023-04-24T05:03:41;4.32;;;2.28;;
16416;SDS011;8317;52.186;5.688;2023-04-24T05:06:09;3.05;;;2.20;;
16416;SDS011;8317;52.186;5.688;2023-04-24T05:08:36;3.00;;;2.47;;
16416;SDS011;8317;52.186;5.688;2023-04-24T05:11:03;2.78;;;2.40;;
16416;SDS011;8317;52.186;5.688;2023-04-24T05:13:31;3.60;;;2.60;;
16416;SDS011;8317;52.186;5.688;2023-04-24T05:15:58;3.05;;;2.42;;
16416;SDS011;8317;52.186;5.688;2023-04-24T05:18:25;4.38;;;2.55;;
16416;SDS011;8317;52.186;5.688;2023-04-24T05:20:52;3.85;;;2.50;;
16416;SDS011;8317;52.186;5.688;2023-04-24T05:23:20;3.60;;;2.72;;
16416;SDS011;8317;52.186;5.688;2023-04-24T05:25:47;4.53;;;2.95;;
16416;SDS011;8317;52.186;5.688;2023-04-24T05:28:14;3.17;;;2.33;;
16416;SDS011;8317;52.186;5.688;2023-04-24T05:30:41;4.85;;;2.22;;
16416;SDS011;8317;52.186;5.688;2023-04-24T05:33:08;2.20;;;2.00;;
16416;SDS011;8317;52.186;5.688;2023-04-24T05:35:35;1.90;;;1.80;;
16416;SDS011;8317;52.186;5.688;2023-04-24T05:38:02;2.88;;;2.35;;
16416;SDS011;8317;52.186;5.688;2023-04-24T05:40:30;5.20;;;2.70;;
16416;SDS011;8317;52.186;5.688;2023-04-24T05:42:57;2.90;;;2.20;;
16416;SDS011;8317;52.186;5.688;2023-04-24T05:45:24;2.40;;;2.17;;
16416;SDS011;8317;52.186;5.688;2023-04-24T05:47:52;2.78;;;2.03;;
16416;SDS011;8317;52.186;5.688;2023-04-24T05:50:18;2.75;;;2.30;;
16416;SDS011;8317;52.186;5.688;2023-04-24T05:52:45;3.20;;;2.42;;
16416;SDS011;8317;52.186;5.688;2023-04-24T05:55:12;2.65;;;2.38;;
16416;SDS011;8317;52.186;5.688;2023-04-24T05:57:43;3.92;;;2.85;;
16416;SDS011;8317;52.186;5.688;2023-04-24T06:00:11;3.47;;;2.75;;
16416;SDS011;8317;52.186;5.688;2023-04-24T06:02:38;5.43;;;2.80;;
16416;SDS011;8317;52.186;5.688;2023-04-24T06:05:05;4.10;;;2.92;;
16416;SDS011;8317;52.186;5.688;2023-04-24T06:07:33;4.13;;;2.75;;
16416;SDS011;8317;52.186;5.688;2023-04-24T06:10:00;4.28;;;2.60;;
16416;SDS011;8317;52.186;5.688;2023-04-24T06:12:27;4.07;;;3.15;;
16416;SDS011;8317;52.186;5.688;2023-04-24T06:14:55;4.85;;;3.50;;
16416;SDS011;8317;52.186;5.688;2023-04-24T06:17:22;5.22;;;3.28;;
16416;SDS011;8317;52.186;5.688;2023-04-24T06:19:49;4.63;;;2.83;;
16416;SDS011;8317;52.186;5.688;2023-04-24T06:22:16;8.00;;;2.92;;
16416;SDS011;8317;52.186;5.688;2023-04-24T06:24:43;6.20;;;3.55;;
16416;SDS011;8317;52.186;5.688;2023-04-24T06:27:10;6.32;;;3.10;;
16416;SDS011;8317;52.186;5.688;2023-04-24T06:29:37;5.82;;;3.53;;
16416;SDS011;8317;52.186;5.688;2023-04-24T06:32:05;4.85;;;2.85;;
16416;SDS011;8317;52.186;5.688;2023-04-24T06:34:32;5.20;;;3.40;;
16416;SDS011;8317;52.186;5.688;2023-04-24T06:37:00;7.75;;;3.25;;
16416;SDS011;8317;52.186;5.688;2023-04-24T06:39:27;4.47;;;2.75;;
16416;SDS011;8317;52.186;5.688;2023-04-24T06:41:54;4.55;;;2.92;;
16416;SDS011;8317;52.186;5.688;2023-04-24T06:44:21;4.38;;;3.15;;
16416;SDS011;8317;52.186;5.688;2023-04-24T06:46:48;5.70;;;3.30;;
16416;SDS011;8317;52.186;5.688;2023-04-24T06:49:16;4.20;;;3.22;;
16416;SDS011;8317;52.186;5.688;2023-04-24T06:51:43;5.38;;;2.28;;
16416;SDS011;8317;52.186;5.688;2023-04-24T06:54:10;3.58;;;2.05;;
16416;SDS011;8317;52.186;5.688;2023-04-24T06:56:37;2.17;;;1.90;;
16416;SDS011;8317;52.186;5.688;2023-04-24T06:59:04;1.75;;;1.60;;
16416;SDS011;8317;52.186;5.688;2023-04-24T07:01:31;2.10;;;1.83;;
16416;SDS011;8317;52.186;5.688;2023-04-24T07:03:58;1.80;;;1.70;;
16416;SDS011;8317;52.186;5.688;2023-04-24T07:06:26;3.05;;;1.83;;
16416;SDS011;8317;52.186;5.688;2023-04-24T07:08:53;2.38;;;2.17;;
16416;SDS011;8317;52.186;5.688;2023-04-24T07:11:20;4.50;;;3.05;;
16416;SDS011;8317;52.186;5.688;2023-04-24T07:13:48;5.35;;;3.08;;
16416;SDS011;8317;52.186;5.688;2023-04-24T07:16:15;6.38;;;3.47;;
16416;SDS011;8317;52.186;5.688;2023-04-24T07:18:42;11.63;;;5.40;;
16416;SDS011;8317;52.186;5.688;2023-04-24T07:21:09;11.98;;;4.78;;
16416;SDS011;8317;52.186;5.688;2023-04-24T07:23:37;13.60;;;6.03;;
16416;SDS011;8317;52.186;5.688;2023-04-24T07:26:06;7.68;;;4.70;;
16416;SDS011;8317;52.186;5.688;2023-04-24T07:28:33;10.48;;;4.80;;
16416;SDS011;8317;52.186;5.688;2023-04-24T07:31:00;9.88;;;5.80;;
16416;SDS011;8317;52.186;5.688;2023-04-24T07:33:27;10.35;;;5.13;;
16416;SDS011;8317;52.186;5.688;2023-04-24T07:35:54;10.02;;;5.10;;
16416;SDS011;8317;52.186;5.688;2023-04-24T07:38:21;15.45;;;6.30;;
16416;SDS011;8317;52.186;5.688;2023-04-24T07:40:52;11.68;;;6.70;;
16416;SDS011;8317;52.186;5.688;2023-04-24T07:43:19;11.75;;;6.82;;
16416;SDS011;8317;52.186;5.688;2023-04-24T07:45:46;14.57;;;6.45;;
16416;SDS011;8317;52.186;5.688;2023-04-24T07:48:13;9.18;;;6.15;;
16416;SDS011;8317;52.186;5.688;2023-04-24T07:50:41;13.13;;;6.85;;
16416;SDS011;8317;52.186;5.688;2023-04-24T07:53:08;9.77;;;5.75;;
16416;SDS011;8317;52.186;5.688;2023-04-24T07:55:35;11.23;;;6.18;;
16416;SDS011;8317;52.186;5.688;2023-04-24T07:58:04;9.40;;;5.93;;
16416;SDS011;8317;52.186;5.688;2023-04-24T08:00:31;13.40;;;6.28;;
16416;SDS011;8317;52.186;5.688;2023-04-24T08:02:58;9.30;;;5.63;;
16416;SDS011;8317;52.186;5.688;2023-04-24T08:05:24;13.70;;;6.63;;
16416;SDS011;8317;52.186;5.688;2023-04-24T08:07:53;10.48;;;6.35;;
16416;SDS011;8317;52.186;5.688;2023-04-24T08:10:20;8.02;;;5.30;;
16416;SDS011;8317;52.186;5.688;2023-04-24T08:12:48;12.20;;;5.78;;
16416;SDS011;8317;52.186;5.688;2023-04-24T08:15:16;12.48;;;4.80;;
16416;SDS011;8317;52.186;5.688;2023-04-24T08:17:43;16.17;;;5.90;;
16416;SDS011;8317;52.186;5.688;2023-04-24T08:20:10;13.27;;;5.93;;
16416;SDS011;8317;52.186;5.688;2023-04-24T08:22:39;9.68;;;5.25;;
16416;SDS011;8317;52.186;5.688;2023-04-24T08:25:06;10.63;;;5.57;;
16416;SDS011;8317;52.186;5.688;2023-04-24T08:27:34;10.43;;;5.35;;
16416;SDS011;8317;52.186;5.688;2023-04-24T08:30:02;8.82;;;5.20;;
16416;SDS011;8317;52.186;5.688;2023-04-24T08:32:31;12.43;;;5.85;;
16416;SDS011;8317;52.186;5.688;2023-04-24T08:34:58;9.70;;;4.80;;
16416;SDS011;8317;52.186;5.688;2023-04-24T08:37:25;8.75;;;5.93;;
16416;SDS011;8317;52.186;5.688;2023-04-24T08:39:53;12.25;;;5.65;;
16416;SDS011;8317;52.186;5.688;2023-04-24T08:42:20;12.00;;;5.28;;
16416;SDS011;8317;52.186;5.688;2023-04-24T08:44:48;14.38;;;5.82;;
16416;SDS011;8317;52.186;5.688;2023-04-24T08:47:15;5.55;;;4.15;;
16416;SDS011;8317;52.186;5.688;2023-04-24T08:49:44;6.18;;;2.45;;
16416;SDS011;8317;52.186;5.688;2023-04-24T08:52:11;5.22;;;3.38;;
16416;SDS011;8317;52.186;5.688;2023-04-24T08:54:39;5.28;;;3.47;;
16416;SDS011;8317;52.186;5.688;2023-04-24T08:57:08;3.25;;;2.40;;
16416;SDS011;8317;52.186;5.688;2023-04-24T08:59:36;3.42;;;2.38;;
16416;SDS011;8317;52.186;5.688;2023-04-24T09:02:04;6.45;;;2.35;;
16416;SDS011;8317;52.186;5.688;2023-04-24T09:04:32;6.45;;;1.92;;
16416;SDS011;8317;52.186;5.688;2023-04-24T09:07:02;6.20;;;3.30;;
16416;SDS011;8317;52.186;5.688;2023-04-24T09:09:30;5.10;;;2.55;;
16416;SDS011;8317;52.186;5.688;2023-04-24T09:11:58;5.10;;;2.45;;
16416;SDS011;8317;52.186;5.688;2023-04-24T09:14:26;11.20;;;3.10;;
16416;SDS011;8317;52.186;5.688;2023-04-24T09:16:56;7.20;;;2.45;;
16416;SDS011;8317;52.186;5.688;2023-04-24T09:19:23;6.15;;;3.17;;
16416;SDS011;8317;52.186;5.688;2023-04-24T09:21:50;5.30;;;2.40;;
16416;SDS011;8317;52.186;5.688;2023-04-24T09:24:21;7.93;;;2.63;;
16416;SDS011;8317;52.186;5.688;2023-04-24T09:26:48;6.30;;;2.95;;
16416;SDS011;8317;52.186;5.688;2023-04-24T09:29:22;7.40;;;3.15;;
16416;SDS011;8317;52.186;5.688;2023-04-24T09:31:49;6.70;;;2.78;;
16416;SDS011;8317;52.186;5.688;2023-04-24T09:34:19;7.70;;;3.85;;
16416;SDS011;8317;52.186;5.688;2023-04-24T09:36:48;6.80;;;2.55;;
16416;SDS011;8317;52.186;5.688;2023-04-24T09:39:15;11.32;;;3.63;;
16416;SDS011;8317;52.186;5.688;2023-04-24T09:41:46;4.95;;;2.58;;
16416;SDS011;8317;52.186;5.688;2023-04-24T09:44:15;9.88;;;3.13;;
16416;SDS011;8317;52.186;5.688;2023-04-24T09:46:45;10.35;;;3.22;;
16416;SDS011;8317;52.186;5.688;2023-04-24T09:49:16;9.15;;;2.70;;
16416;SDS011;8317;52.186;5.688;2023-04-24T09:51:47;4.07;;;2.58;;
16416;SDS011;8317;52.186;5.688;2023-04-24T09:54:14;6.72;;;3.08;;
16416;SDS011;8317;52.186;5.688;2023-04-24T09:56:43;1.95;;;1.85;;
16416;SDS011;8317;52.186;5.688;2023-04-24T09:59:12;6.07;;;2.15;;
16416;SDS011;8317;52.186;5.688;2023-04-24T10:01:40;2.40;;;2.20;;
16416;SDS011;8317;52.186;5.688;2023-04-24T10:04:16;2.17;;;1.98;;
16416;SDS011;8317;52.186;5.688;2023-04-24T10:06:44;14.88;;;2.22;;
16416;SDS011;8317;52.186;5.688;2023-04-24T10:09:12;3.60;;;2.00;;
16416;SDS011;8317;52.186;5.688;2023-04-24T10:11:40;1.67;;;1.58;;
16416;SDS011;8317;52.186;5.688;2023-04-24T10:14:09;9.32;;;2.20;;
16416;SDS011;8317;52.186;5.688;2023-04-24T10:16:38;14.90;;;2.17;;
16416;SDS011;8317;52.186;5.688;2023-04-24T10:19:06;8.05;;;2.45;;
16416;SDS011;8317;52.186;5.688;2023-04-24T10:21:34;3.50;;;2.17;;
16416;SDS011;8317;52.186;5.688;2023-04-24T10:24:02;6.78;;;2.90;;
16416;SDS011;8317;52.186;5.688;2023-04-24T10:26:32;2.25;;;2.03;;
16416;SDS011;8317;52.186;5.688;2023-04-24T10:29:00;11.05;;;2.97;;
16416;SDS011;8317;52.186;5.688;2023-04-24T10:31:29;8.18;;;3.10;;
16416;SDS011;8317;52.186;5.688;2023-04-24T10:33:59;6.85;;;2.75;;
16416;SDS011;8317;52.186;5.688;2023-04-24T10:36:27;5.43;;;2.13;;
16416;SDS011;8317;52.186;5.688;2023-04-24T10:38:57;3.33;;;1.52;;
16416;SDS011;8317;52.186;5.688;2023-04-24T10:41:27;6.70;;;2.35;;
16416;SDS011;8317;52.186;5.688;2023-04-24T10:44:06;4.57;;;1.90;;
16416;SDS011;8317;52.186;5.688;2023-04-24T10:46:34;5.60;;;1.80;;
16416;SDS011;8317;52.186;5.688;2023-04-24T10:49:04;4.50;;;2.15;;
16416;SDS011;8317;52.186;5.688;2023-04-24T10:51:44;8.23;;;2.10;;
16416;SDS011;8317;52.186;5.688;2023-04-24T10:54:21;2.08;;;1.85;;
16416;SDS011;8317;52.186;5.688;2023-04-24T10:56:50;2.13;;;1.55;;
16416;SDS011;8317;52.186;5.688;2023-04-24T10:59:23;1.98;;;1.40;;
16416;SDS011;8317;52.186;5.688;2023-04-24T11:01:52;12.88;;;1.80;;
16416;SDS011;8317;52.186;5.688;2023-04-24T11:04:30;5.72;;;1.50;;
16416;SDS011;8317;52.186;5.688;2023-04-24T11:06:57;5.60;;;2.15;;
16416;SDS011;8317;52.186;5.688;2023-04-24T11:09:26;11.27;;;2.35;;
16416;SDS011;8317;52.186;5.688;2023-04-24T11:12:02;3.28;;;2.10;;
16416;SDS011;8317;52.186;5.688;2023-04-24T11:14:31;2.00;;;1.10;;
16416;SDS011;8317;52.186;5.688;2023-04-24T11:17:29;8.32;;;1.92;;
16416;SDS011;8317;52.186;5.688;2023-04-24T11:20:03;1.50;;;1.25;;
16416;SDS011;8317;52.186;5.688;2023-04-24T11:22:32;7.65;;;1.80;;
16416;SDS011;8317;52.186;5.688;2023-04-24T11:25:01;3.08;;;1.55;;
16416;SDS011;8317;52.186;5.688;2023-04-24T11:27:29;1.40;;;0.98;;
16416;SDS011;8317;52.186;5.688;2023-04-24T11:30:01;1.13;;;1.02;;
16416;SDS011;8317;52.186;5.688;2023-04-24T11:32:30;2.22;;;1.10;;
16416;SDS011;8317;52.186;5.688;2023-04-24T11:35:04;3.30;;;1.15;;
16416;SDS011;8317;52.186;5.688;2023-04-24T11:37:33;1.02;;;0.93;;
16416;SDS011;8317;52.186;5.688;2023-04-24T11:40:01;5.80;;;1.35;;
16416;SDS011;8317;52.186;5.688;2023-04-24T11:42:33;1.00;;;1.00;;
16416;SDS011;8317;52.186;5.688;2023-04-24T11:45:00;1.70;;;1.40;;
16416;SDS011;8317;52.186;5.688;2023-04-24T11:47:29;2.03;;;1.40;;
16416;SDS011;8317;52.186;5.688;2023-04-24T11:49:57;3.40;;;1.20;;
16416;SDS011;8317;52.186;5.688;2023-04-24T11:52:26;0.98;;;0.93;;
16416;SDS011;8317;52.186;5.688;2023-04-24T11:54:53;1.98;;;1.60;;
16416;SDS011;8317;52.186;5.688;2023-04-24T11:57:20;1.67;;;1.30;;
16416;SDS011;8317;52.186;5.688;2023-04-24T11:59:48;3.30;;;1.40;;
16416;SDS011;8317;52.186;5.688;2023-04-24T12:02:24;1.38;;;1.10;;
16416;SDS011;8317;52.186;5.688;2023-04-24T12:04:52;1.13;;;1.02;;
16416;SDS011;8317;52.186;5.688;2023-04-24T12:07:20;3.45;;;1.08;;
16416;SDS011;8317;52.186;5.688;2023-04-24T12:09:49;0.80;;;0.77;;
16416;SDS011;8317;52.186;5.688;2023-04-24T12:12:23;4.70;;;1.63;;
16416;SDS011;8317;52.186;5.688;2023-04-24T12:14:53;1.27;;;1.00;;
16416;SDS011;8317;52.186;5.688;2023-04-24T12:17:23;0.90;;;0.90;;
16416;SDS011;8317;52.186;5.688;2023-04-24T12:19:51;2.25;;;1.08;;
16416;SDS011;8317;52.186;5.688;2023-04-24T12:22:18;0.63;;;0.63;;
16416;SDS011;8317;52.186;5.688;2023-04-24T12:25:02;2.50;;;0.98;;
16416;SDS011;8317;52.186;5.688;2023-04-24T12:27:31;2.58;;;1.10;;
16416;SDS011;8317;52.186;5.688;2023-04-24T12:29:59;5.35;;;1.10;;
16416;SDS011;8317;52.186;5.688;2023-04-24T12:32:27;3.70;;;1.73;;
16416;SDS011;8317;52.186;5.688;2023-04-24T12:34:55;1.02;;;1.02;;
16416;SDS011;8317;52.186;5.688;2023-04-24T12:37:23;3.00;;;1.77;;
16416;SDS011;8317;52.186;5.688;2023-04-24T12:39:58;2.15;;;1.90;;
16416;SDS011;8317;52.186;5.688;2023-04-24T12:42:27;2.25;;;1.58;;
16416;SDS011;8317;52.186;5.688;2023-04-24T12:44:59;7.75;;;1.92;;
16416;SDS011;8317;52.186;5.688;2023-04-24T12:47:27;1.33;;;1.10;;
16416;SDS011;8317;52.186;5.688;2023-04-24T12:49:55;1.27;;;1.17;;
16416;SDS011;8317;52.186;5.688;2023-04-24T12:52:22;1.58;;;0.90;;
16416;SDS011;8317;52.186;5.688;2023-04-24T12:54:51;1.55;;;0.95;;
16416;SDS011;8317;52.186;5.688;2023-04-24T12:57:19;1.70;;;1.17;;
16416;SDS011;8317;52.186;5.688;2023-04-24T12:59:47;10.73;;;2.40;;
16416;SDS011;8317;52.186;5.688;2023-04-24T13:02:14;2.97;;;1.88;;
16416;SDS011;8317;52.186;5.688;2023-04-24T13:04:43;7.72;;;1.20;;
16416;SDS011;8317;52.186;5.688;2023-04-24T13:07:11;1.88;;;1.30;;
16416;SDS011;8317;52.186;5.688;2023-04-24T13:09:39;1.67;;;1.02;;
16416;SDS011;8317;52.186;5.688;2023-04-24T13:12:06;7.45;;;1.33;;
16416;SDS011;8317;52.186;5.688;2023-04-24T13:14:33;3.63;;;1.55;;
16416;SDS011;8317;52.186;5.688;2023-04-24T13:17:02;6.53;;;1.95;;
16416;SDS011;8317;52.186;5.688;2023-04-24T13:19:30;3.13;;;1.50;;
16416;SDS011;8317;52.186;5.688;2023-04-24T13:22:01;2.92;;;1.30;;
16416;SDS011;8317;52.186;5.688;2023-04-24T13:24:29;5.40;;;2.75;;
16416;SDS011;8317;52.186;5.688;2023-04-24T13:26:56;3.97;;;1.25;;
16416;SDS011;8317;52.186;5.688;2023-04-24T13:29:25;3.75;;;1.58;;
16416;SDS011;8317;52.186;5.688;2023-04-24T13:31:52;8.32;;;1.95;;
16416;SDS011;8317;52.186;5.688;2023-04-24T13:34:22;11.02;;;3.22;;
16416;SDS011;8317;52.186;5.688;2023-04-24T13:36:50;12.23;;;2.67;;
16416;SDS011;8317;52.186;5.688;2023-04-24T13:39:17;6.18;;;2.72;;
16416;SDS011;8317;52.186;5.688;2023-04-24T13:41:44;5.60;;;1.85;;
16416;SDS011;8317;52.186;5.688;2023-04-24T13:44:12;9.55;;;2.97;;
16416;SDS011;8317;52.186;5.688;2023-04-24T13:46:40;7.70;;;2.00;;
16416;SDS011;8317;52.186;5.688;2023-04-24T13:49:08;6.05;;;1.77;;
16416;SDS011;8317;52.186;5.688;2023-04-24T13:51:37;4.03;;;1.45;;
16416;SDS011;8317;52.186;5.688;2023-04-24T13:54:05;5.03;;;2.13;;
16416;SDS011;8317;52.186;5.688;2023-04-24T13:56:32;3.70;;;1.63;;
16416;SDS011;8317;52.186;5.688;2023-04-24T13:58:58;5.93;;;1.48;;
16416;SDS011;8317;52.186;5.688;2023-04-24T14:01:26;11.65;;;1.70;;
16416;SDS011;8317;52.186;5.688;2023-04-24T14:03:53;4.63;;;1.85;;
16416;SDS011;8317;52.186;5.688;2023-04-24T14:06:21;3.97;;;1.85;;
16416;SDS011;8317;52.186;5.688;2023-04-24T14:08:50;7.45;;;1.75;;
16416;SDS011;8317;52.186;5.688;2023-04-24T14:11:17;4.47;;;1.85;;
16416;SDS011;8317;52.186;5.688;2023-04-24T14:13:45;11.15;;;2.22;;
16416;SDS011;8317;52.186;5.688;2023-04-24T14:16:12;3.72;;;2.13;;
16416;SDS011;8317;52.186;5.688;2023-04-24T14:18:39;8.35;;;2.95;;
16416;SDS011;8317;52.186;5.688;2023-04-24T14:21:06;8.80;;;1.75;;
16416;SDS011;8317;52.186;5.688;2023-04-24T14:23:33;3.97;;;1.88;;
16416;SDS011;8317;52.186;5.688;2023-04-24T14:26:02;10.68;;;2.47;;
16416;SDS011;8317;52.186;5.688;2023-04-24T14:28:29;4.18;;;2.05;;
16416;SDS011;8317;52.186;5.688;2023-04-24T14:30:57;6.25;;;1.85;;
16416;SDS011;8317;52.186;5.688;2023-04-24T14:33:23;4.18;;;1.45;;
16416;SDS011;8317;52.186;5.688;2023-04-24T14:35:50;6.65;;;2.15;;
16416;SDS011;8317;52.186;5.688;2023-04-24T14:38:19;3.90;;;1.65;;
16416;SDS011;8317;52.186;5.688;2023-04-24T14:40:47;9.30;;;2.05;;
16416;SDS011;8317;52.186;5.688;2023-04-24T14:43:15;9.68;;;2.03;;
16416;SDS011;8317;52.186;5.688;2023-04-24T14:45:42;5.28;;;1.90;;
16416;SDS011;8317;52.186;5.688;2023-04-24T14:48:09;4.43;;;2.25;;
16416;SDS011;8317;52.186;5.688;2023-04-24T14:50:36;5.03;;;1.83;;
16416;SDS011;8317;52.186;5.688;2023-04-24T14:53:03;14.82;;;2.20;;
16416;SDS011;8317;52.186;5.688;2023-04-24T14:55:30;9.02;;;1.77;;
16416;SDS011;8317;52.186;5.688;2023-04-24T14:57:58;2.38;;;1.92;;
16416;SDS011;8317;52.186;5.688;2023-04-24T15:00:26;6.40;;;2.22;;
16416;SDS011;8317;52.186;5.688;2023-04-24T15:02:53;13.23;;;5.15;;
16416;SDS011;8317;52.186;5.688;2023-04-24T15:05:20;3.53;;;2.90;;